sensor_id;sensor_type;location;lat;lon;timestamp;P1;durP1;ratioP1;P2;durP2;ratioP2
56455;SDS011;42354;53.218;6.564;2023-08-08T00:01:02;7.35;;;2.40;;
56455;SDS011;42354;53.218;6.564;2023-08-08T00:03:28;7.35;;;2.53;;
56455;SDS011;42354;53.218;6.564;2023-08-08T00:05:53;8.13;;;2.65;;
56455;SDS011;42354;53.218;6.564;2023-08-08T00:08:19;9.32;;;2.88;;
56455;SDS011;42354;53.218;6.564;2023-08-08T00:10:46;10.90;;;2.65;;
56455;SDS011;42354;53.218;6.564;2023-08-08T00:13:11;7.95;;;2.72;;
56455;SDS011;42354;53.218;6.564;2023-08-08T00:15:37;4.57;;;2.47;;
56455;SDS011;42354;53.218;6.564;2023-08-08T00:18:02;8.25;;;3.05;;
56455;SDS011;42354;53.218;6.564;2023-08-08T00:20:28;7.60;;;2.80;;
56455;SDS011;42354;53.218;6.564;2023-08-08T00:22:56;5.72;;;2.55;;
56455;SDS011;42354;53.218;6.564;2023-08-08T00:25:21;6.32;;;2.45;;
56455;SDS011;42354;53.218;6.564;2023-08-08T00:27:47;7.30;;;2.95;;
56455;SDS011;42354;53.218;6.564;2023-08-08T00:30:12;11.15;;;3.50;;
56455;SDS011;42354;53.218;6.564;2023-08-08T00:32:38;8.35;;;3.13;;
56455;SDS011;42354;53.218;6.564;2023-08-08T00:35:04;10.40;;;3.58;;
56455;SDS011;42354;53.218;6.564;2023-08-08T00:37:30;6.50;;;3.08;;
56455;SDS011;42354;53.218;6.564;2023-08-08T00:39:55;6.70;;;3.45;;
56455;SDS011;42354;53.218;6.564;2023-08-08T00:42:20;8.32;;;3.50;;
56455;SDS011;42354;53.218;6.564;2023-08-08T00:44:46;13.85;;;3.35;;
56455;SDS011;42354;53.218;6.564;2023-08-08T00:47:11;12.38;;;3.70;;
56455;SDS011;42354;53.218;6.564;2023-08-08T00:49:37;7.93;;;3.20;;
56455;SDS011;42354;53.218;6.564;2023-08-08T00:52:03;8.70;;;3.33;;
56455;SDS011;42354;53.218;6.564;2023-08-08T00:54:29;7.22;;;3.63;;
56455;SDS011;42354;53.218;6.564;2023-08-08T00:56:55;10.57;;;3.95;;
56455;SDS011;42354;53.218;6.564;2023-08-08T00:59:21;8.02;;;3.45;;
56455;SDS011;42354;53.218;6.564;2023-08-08T01:01:47;7.43;;;3.83;;
56455;SDS011;42354;53.218;6.564;2023-08-08T01:04:12;11.68;;;3.67;;
56455;SDS011;42354;53.218;6.564;2023-08-08T01:06:43;9.77;;;3.63;;
56455;SDS011;42354;53.218;6.564;2023-08-08T01:09:45;9.25;;;3.33;;
56455;SDS011;42354;53.218;6.564;2023-08-08T01:12:15;5.50;;;3.17;;
56455;SDS011;42354;53.218;6.564;2023-08-08T01:14:42;9.75;;;3.33;;
56455;SDS011;42354;53.218;6.564;2023-08-08T01:17:08;9.30;;;3.45;;
56455;SDS011;42354;53.218;6.564;2023-08-08T01:19:35;7.28;;;3.47;;
56455;SDS011;42354;53.218;6.564;2023-08-08T01:22:02;7.63;;;3.33;;
56455;SDS011;42354;53.218;6.564;2023-08-08T01:24:29;13.32;;;4.32;;
56455;SDS011;42354;53.218;6.564;2023-08-08T01:26:58;10.93;;;3.47;;
56455;SDS011;42354;53.218;6.564;2023-08-08T01:29:25;13.48;;;3.50;;
56455;SDS011;42354;53.218;6.564;2023-08-08T01:31:50;10.55;;;3.25;;
56455;SDS011;42354;53.218;6.564;2023-08-08T01:34:16;7.82;;;3.88;;
56455;SDS011;42354;53.218;6.564;2023-08-08T01:39:13;8.55;;;3.50;;
56455;SDS011;42354;53.218;6.564;2023-08-08T01:41:42;7.97;;;3.63;;
56455;SDS011;42354;53.218;6.564;2023-08-08T01:44:09;7.30;;;3.00;;
56455;SDS011;42354;53.218;6.564;2023-08-08T01:46:35;6.07;;;3.47;;
56455;SDS011;42354;53.218;6.564;2023-08-08T01:49:03;14.60;;;3.70;;
56455;SDS011;42354;53.218;6.564;2023-08-08T01:51:29;14.48;;;3.33;;
56455;SDS011;42354;53.218;6.564;2023-08-08T01:53:54;4.65;;;2.92;;
56455;SDS011;42354;53.218;6.564;2023-08-08T01:56:20;6.35;;;3.05;;
56455;SDS011;42354;53.218;6.564;2023-08-08T01:58:45;11.02;;;3.25;;
56455;SDS011;42354;53.218;6.564;2023-08-08T02:01:10;8.32;;;3.30;;
56455;SDS011;42354;53.218;6.564;2023-08-08T02:03:36;12.48;;;3.50;;
56455;SDS011;42354;53.218;6.564;2023-08-08T02:06:01;9.35;;;3.40;;
56455;SDS011;42354;53.218;6.564;2023-08-08T02:08:27;6.75;;;3.40;;
56455;SDS011;42354;53.218;6.564;2023-08-08T02:10:52;9.32;;;3.50;;
56455;SDS011;42354;53.218;6.564;2023-08-08T02:13:17;10.98;;;3.65;;
56455;SDS011;42354;53.218;6.564;2023-08-08T02:15:43;7.75;;;3.08;;
56455;SDS011;42354;53.218;6.564;2023-08-08T02:18:08;10.38;;;3.53;;
56455;SDS011;42354;53.218;6.564;2023-08-08T02:20:36;10.27;;;3.67;;
56455;SDS011;42354;53.218;6.564;2023-08-08T02:23:01;9.45;;;3.35;;
56455;SDS011;42354;53.218;6.564;2023-08-08T02:25:27;12.35;;;3.20;;
56455;SDS011;42354;53.218;6.564;2023-08-08T02:27:52;9.98;;;3.58;;
56455;SDS011;42354;53.218;6.564;2023-08-08T02:30:18;8.90;;;3.53;;
56455;SDS011;42354;53.218;6.564;2023-08-08T02:32:43;5.15;;;3.28;;
56455;SDS011;42354;53.218;6.564;2023-08-08T02:35:09;9.02;;;3.63;;
56455;SDS011;42354;53.218;6.564;2023-08-08T02:37:34;11.18;;;3.55;;
56455;SDS011;42354;53.218;6.564;2023-08-08T02:40:00;7.88;;;3.90;;
56455;SDS011;42354;53.218;6.564;2023-08-08T02:42:28;8.15;;;3.00;;
56455;SDS011;42354;53.218;6.564;2023-08-08T02:44:54;11.63;;;3.75;;
56455;SDS011;42354;53.218;6.564;2023-08-08T02:47:19;14.23;;;3.58;;
56455;SDS011;42354;53.218;6.564;2023-08-08T02:49:45;11.27;;;3.50;;
56455;SDS011;42354;53.218;6.564;2023-08-08T02:52:11;9.63;;;3.67;;
56455;SDS011;42354;53.218;6.564;2023-08-08T02:54:36;11.63;;;3.65;;
56455;SDS011;42354;53.218;6.564;2023-08-08T02:57:02;10.57;;;3.60;;
56455;SDS011;42354;53.218;6.564;2023-08-08T02:59:28;10.00;;;3.00;;
56455;SDS011;42354;53.218;6.564;2023-08-08T03:01:54;5.68;;;3.10;;
56455;SDS011;42354;53.218;6.564;2023-08-08T03:04:19;8.90;;;2.75;;
56455;SDS011;42354;53.218;6.564;2023-08-08T03:06:44;9.85;;;2.80;;
56455;SDS011;42354;53.218;6.564;2023-08-08T03:09:10;9.90;;;2.75;;
56455;SDS011;42354;53.218;6.564;2023-08-08T03:11:35;10.93;;;2.63;;
56455;SDS011;42354;53.218;6.564;2023-08-08T03:14:02;6.82;;;2.60;;
56455;SDS011;42354;53.218;6.564;2023-08-08T03:16:28;7.63;;;2.63;;
56455;SDS011;42354;53.218;6.564;2023-08-08T03:18:53;8.80;;;2.13;;
56455;SDS011;42354;53.218;6.564;2023-08-08T03:21:21;7.75;;;2.58;;
56455;SDS011;42354;53.218;6.564;2023-08-08T03:23:47;9.27;;;2.00;;
56455;SDS011;42354;53.218;6.564;2023-08-08T03:26:12;9.27;;;2.50;;
56455;SDS011;42354;53.218;6.564;2023-08-08T03:28:38;3.72;;;1.40;;
56455;SDS011;42354;53.218;6.564;2023-08-08T03:31:03;4.82;;;1.40;;
56455;SDS011;42354;53.218;6.564;2023-08-08T03:33:28;7.50;;;1.80;;
56455;SDS011;42354;53.218;6.564;2023-08-08T03:35:54;7.05;;;1.60;;
56455;SDS011;42354;53.218;6.564;2023-08-08T03:38:21;4.90;;;1.70;;
56455;SDS011;42354;53.218;6.564;2023-08-08T03:40:46;5.25;;;1.40;;
56455;SDS011;42354;53.218;6.564;2023-08-08T03:43:12;5.18;;;1.55;;
56455;SDS011;42354;53.218;6.564;2023-08-08T03:45:37;8.85;;;1.30;;
56455;SDS011;42354;53.218;6.564;2023-08-08T03:48:02;6.43;;;1.40;;
56455;SDS011;42354;53.218;6.564;2023-08-08T03:50:28;5.03;;;1.50;;
56455;SDS011;42354;53.218;6.564;2023-08-08T03:52:53;5.22;;;1.48;;
56455;SDS011;42354;53.218;6.564;2023-08-08T03:55:19;8.30;;;1.63;;
56455;SDS011;42354;53.218;6.564;2023-08-08T03:57:44;4.05;;;1.40;;
56455;SDS011;42354;53.218;6.564;2023-08-08T04:00:10;3.22;;;1.52;;
56455;SDS011;42354;53.218;6.564;2023-08-08T04:02:36;7.55;;;1.60;;
56455;SDS011;42354;53.218;6.564;2023-08-08T04:05:02;4.18;;;2.45;;
56455;SDS011;42354;53.218;6.564;2023-08-08T04:07:27;7.82;;;1.50;;
56455;SDS011;42354;53.218;6.564;2023-08-08T04:09:53;4.15;;;1.48;;
56455;SDS011;42354;53.218;6.564;2023-08-08T04:12:18;5.28;;;1.33;;
56455;SDS011;42354;53.218;6.564;2023-08-08T04:14:44;4.53;;;1.50;;
56455;SDS011;42354;53.218;6.564;2023-08-08T04:17:09;7.80;;;1.58;;
56455;SDS011;42354;53.218;6.564;2023-08-08T04:19:34;8.30;;;1.50;;
56455;SDS011;42354;53.218;6.564;2023-08-08T04:22:00;5.72;;;1.30;;
56455;SDS011;42354;53.218;6.564;2023-08-08T04:24:25;6.63;;;1.58;;
56455;SDS011;42354;53.218;6.564;2023-08-08T04:26:51;5.72;;;1.48;;
56455;SDS011;42354;53.218;6.564;2023-08-08T04:29:16;4.35;;;1.77;;
56455;SDS011;42354;53.218;6.564;2023-08-08T04:31:42;5.88;;;2.10;;
56455;SDS011;42354;53.218;6.564;2023-08-08T04:34:07;11.85;;;2.03;;
56455;SDS011;42354;53.218;6.564;2023-08-08T04:36:32;8.70;;;1.50;;
56455;SDS011;42354;53.218;6.564;2023-08-08T04:38:58;5.75;;;1.70;;
56455;SDS011;42354;53.218;6.564;2023-08-08T04:41:23;4.82;;;1.80;;
56455;SDS011;42354;53.218;6.564;2023-08-08T04:43:49;6.63;;;1.50;;
56455;SDS011;42354;53.218;6.564;2023-08-08T04:46:14;4.43;;;1.23;;
56455;SDS011;42354;53.218;6.564;2023-08-08T04:48:40;5.25;;;1.40;;
56455;SDS011;42354;53.218;6.564;2023-08-08T04:51:05;7.85;;;1.50;;
56455;SDS011;42354;53.218;6.564;2023-08-08T04:53:31;3.25;;;1.45;;
56455;SDS011;42354;53.218;6.564;2023-08-08T04:55:57;9.48;;;1.65;;
56455;SDS011;42354;53.218;6.564;2023-08-08T04:58:22;5.32;;;1.40;;
56455;SDS011;42354;53.218;6.564;2023-08-08T05:00:48;6.35;;;1.25;;
56455;SDS011;42354;53.218;6.564;2023-08-08T05:03:13;5.30;;;1.45;;
56455;SDS011;42354;53.218;6.564;2023-08-08T05:05:39;6.57;;;1.58;;
56455;SDS011;42354;53.218;6.564;2023-08-08T05:08:04;6.60;;;1.70;;
56455;SDS011;42354;53.218;6.564;2023-08-08T05:10:30;7.22;;;1.50;;
56455;SDS011;42354;53.218;6.564;2023-08-08T05:12:57;5.45;;;1.70;;
56455;SDS011;42354;53.218;6.564;2023-08-08T05:15:23;8.25;;;1.35;;
56455;SDS011;42354;53.218;6.564;2023-08-08T05:17:51;9.48;;;1.60;;
56455;SDS011;42354;53.218;6.564;2023-08-08T05:20:19;6.85;;;1.35;;
56455;SDS011;42354;53.218;6.564;2023-08-08T05:22:44;7.75;;;1.50;;
56455;SDS011;42354;53.218;6.564;2023-08-08T05:25:09;6.70;;;1.48;;
56455;SDS011;42354;53.218;6.564;2023-08-08T05:27:35;5.85;;;1.60;;
56455;SDS011;42354;53.218;6.564;2023-08-08T05:30:01;8.30;;;1.10;;
56455;SDS011;42354;53.218;6.564;2023-08-08T05:32:26;6.07;;;1.38;;
56455;SDS011;42354;53.218;6.564;2023-08-08T05:34:52;7.85;;;1.30;;
56455;SDS011;42354;53.218;6.564;2023-08-08T05:37:17;8.45;;;1.58;;
56455;SDS011;42354;53.218;6.564;2023-08-08T05:39:43;5.25;;;1.30;;
56455;SDS011;42354;53.218;6.564;2023-08-08T05:42:09;5.10;;;1.30;;
56455;SDS011;42354;53.218;6.564;2023-08-08T05:44:34;4.95;;;1.20;;
56455;SDS011;42354;53.218;6.564;2023-08-08T05:47:00;6.85;;;1.17;;
56455;SDS011;42354;53.218;6.564;2023-08-08T05:49:25;6.43;;;1.63;;
56455;SDS011;42354;53.218;6.564;2023-08-08T05:51:51;8.68;;;1.40;;
56455;SDS011;42354;53.218;6.564;2023-08-08T05:54:16;7.75;;;1.42;;
56455;SDS011;42354;53.218;6.564;2023-08-08T05:56:41;4.65;;;1.42;;
56455;SDS011;42354;53.218;6.564;2023-08-08T05:59:07;7.82;;;1.48;;
56455;SDS011;42354;53.218;6.564;2023-08-08T06:01:32;6.40;;;1.40;;
56455;SDS011;42354;53.218;6.564;2023-08-08T06:03:59;9.02;;;1.40;;
56455;SDS011;42354;53.218;6.564;2023-08-08T06:06:25;7.22;;;1.33;;
56455;SDS011;42354;53.218;6.564;2023-08-08T06:08:54;7.93;;;1.60;;
56455;SDS011;42354;53.218;6.564;2023-08-08T06:11:19;7.68;;;1.38;;
56455;SDS011;42354;53.218;6.564;2023-08-08T06:13:46;4.53;;;1.35;;
56455;SDS011;42354;53.218;6.564;2023-08-08T06:16:12;10.43;;;1.67;;
56455;SDS011;42354;53.218;6.564;2023-08-08T06:18:37;6.78;;;1.25;;
56455;SDS011;42354;53.218;6.564;2023-08-08T06:21:03;10.82;;;1.52;;
56455;SDS011;42354;53.218;6.564;2023-08-08T06:23:28;4.38;;;1.17;;
56455;SDS011;42354;53.218;6.564;2023-08-08T06:25:54;4.85;;;1.10;;
56455;SDS011;42354;53.218;6.564;2023-08-08T06:28:19;5.18;;;1.20;;
56455;SDS011;42354;53.218;6.564;2023-08-08T06:30:45;7.95;;;1.35;;
56455;SDS011;42354;53.218;6.564;2023-08-08T06:33:10;5.55;;;1.10;;
56455;SDS011;42354;53.218;6.564;2023-08-08T06:35:36;8.82;;;1.45;;
56455;SDS011;42354;53.218;6.564;2023-08-08T06:38:02;11.40;;;1.33;;
56455;SDS011;42354;53.218;6.564;2023-08-08T06:40:27;7.88;;;1.23;;
56455;SDS011;42354;53.218;6.564;2023-08-08T06:42:53;9.35;;;1.35;;
56455;SDS011;42354;53.218;6.564;2023-08-08T06:45:18;10.32;;;1.20;;
56455;SDS011;42354;53.218;6.564;2023-08-08T06:47:44;7.78;;;1.60;;
56455;SDS011;42354;53.218;6.564;2023-08-08T06:50:10;3.28;;;1.02;;
56455;SDS011;42354;53.218;6.564;2023-08-08T06:52:35;7.72;;;1.20;;
56455;SDS011;42354;53.218;6.564;2023-08-08T06:55:01;7.68;;;1.20;;
56455;SDS011;42354;53.218;6.564;2023-08-08T06:57:26;11.25;;;1.45;;
56455;SDS011;42354;53.218;6.564;2023-08-08T06:59:52;5.25;;;1.10;;
56455;SDS011;42354;53.218;6.564;2023-08-08T07:02:18;8.90;;;1.38;;
56455;SDS011;42354;53.218;6.564;2023-08-08T07:04:44;6.38;;;1.35;;
56455;SDS011;42354;53.218;6.564;2023-08-08T07:07:10;9.63;;;1.40;;
56455;SDS011;42354;53.218;6.564;2023-08-08T07:09:35;6.65;;;1.10;;
56455;SDS011;42354;53.218;6.564;2023-08-08T07:12:02;7.72;;;1.25;;
56455;SDS011;42354;53.218;6.564;2023-08-08T07:14:28;6.78;;;1.10;;
56455;SDS011;42354;53.218;6.564;2023-08-08T07:16:54;6.13;;;1.30;;
56455;SDS011;42354;53.218;6.564;2023-08-08T07:19:19;6.28;;;1.10;;
56455;SDS011;42354;53.218;6.564;2023-08-08T07:21:45;8.20;;;1.20;;
56455;SDS011;42354;53.218;6.564;2023-08-08T07:24:11;8.73;;;1.35;;
56455;SDS011;42354;53.218;6.564;2023-08-08T07:26:37;7.47;;;1.23;;
56455;SDS011;42354;53.218;6.564;2023-08-08T07:29:02;6.03;;;1.27;;
56455;SDS011;42354;53.218;6.564;2023-08-08T07:31:31;6.03;;;1.05;;
56455;SDS011;42354;53.218;6.564;2023-08-08T07:33:56;9.73;;;0.90;;
56455;SDS011;42354;53.218;6.564;2023-08-08T07:36:22;5.38;;;1.25;;
56455;SDS011;42354;53.218;6.564;2023-08-08T07:38:47;7.50;;;1.63;;
56455;SDS011;42354;53.218;6.564;2023-08-08T07:41:13;6.68;;;1.10;;
56455;SDS011;42354;53.218;6.564;2023-08-08T07:43:38;6.30;;;1.20;;
56455;SDS011;42354;53.218;6.564;2023-08-08T07:46:04;9.70;;;1.15;;
56455;SDS011;42354;53.218;6.564;2023-08-08T07:48:29;5.82;;;1.02;;
56455;SDS011;42354;53.218;6.564;2023-08-08T07:50:55;9.45;;;2.35;;
56455;SDS011;42354;53.218;6.564;2023-08-08T07:53:20;13.93;;;1.58;;
56455;SDS011;42354;53.218;6.564;2023-08-08T07:55:46;7.18;;;1.27;;
56455;SDS011;42354;53.218;6.564;2023-08-08T07:58:11;7.95;;;1.10;;
56455;SDS011;42354;53.218;6.564;2023-08-08T08:00:36;6.70;;;1.45;;
56455;SDS011;42354;53.218;6.564;2023-08-08T08:03:03;8.68;;;1.17;;
56455;SDS011;42354;53.218;6.564;2023-08-08T08:05:29;5.00;;;1.20;;
56455;SDS011;42354;53.218;6.564;2023-08-08T08:07:55;6.72;;;1.25;;
56455;SDS011;42354;53.218;6.564;2023-08-08T08:10:20;11.48;;;1.48;;
56455;SDS011;42354;53.218;6.564;2023-08-08T08:12:46;6.68;;;1.15;;
56455;SDS011;42354;53.218;6.564;2023-08-08T08:15:11;5.07;;;1.27;;
56455;SDS011;42354;53.218;6.564;2023-08-08T08:17:37;6.82;;;1.23;;
56455;SDS011;42354;53.218;6.564;2023-08-08T08:20:03;9.02;;;1.13;;
56455;SDS011;42354;53.218;6.564;2023-08-08T08:22:35;9.60;;;1.10;;
56455;SDS011;42354;53.218;6.564;2023-08-08T08:25:02;8.55;;;1.08;;
56455;SDS011;42354;53.218;6.564;2023-08-08T08:27:27;4.50;;;0.90;;
56455;SDS011;42354;53.218;6.564;2023-08-08T08:29:53;6.53;;;1.17;;
56455;SDS011;42354;53.218;6.564;2023-08-08T08:32:18;4.65;;;1.00;;
56455;SDS011;42354;53.218;6.564;2023-08-08T08:34:43;5.20;;;0.80;;
56455;SDS011;42354;53.218;6.564;2023-08-08T08:37:09;7.97;;;1.50;;
56455;SDS011;42354;53.218;6.564;2023-08-08T08:39:35;6.82;;;1.38;;
56455;SDS011;42354;53.218;6.564;2023-08-08T08:42:00;6.45;;;1.20;;
56455;SDS011;42354;53.218;6.564;2023-08-08T08:44:30;7.57;;;1.05;;
56455;SDS011;42354;53.218;6.564;2023-08-08T08:47:03;5.65;;;1.25;;
56455;SDS011;42354;53.218;6.564;2023-08-08T08:49:35;11.65;;;1.15;;
56455;SDS011;42354;53.218;6.564;2023-08-08T08:52:03;8.27;;;1.15;;
56455;SDS011;42354;53.218;6.564;2023-08-08T08:54:31;7.40;;;1.33;;
56455;SDS011;42354;53.218;6.564;2023-08-08T08:56:58;7.60;;;1.25;;
56455;SDS011;42354;53.218;6.564;2023-08-08T08:59:24;6.97;;;0.95;;
56455;SDS011;42354;53.218;6.564;2023-08-08T09:01:50;7.43;;;1.23;;
56455;SDS011;42354;53.218;6.564;2023-08-08T09:04:18;13.73;;;1.20;;
56455;SDS011;42354;53.218;6.564;2023-08-08T09:06:45;3.83;;;0.90;;
56455;SDS011;42354;53.218;6.564;2023-08-08T09:09:11;4.72;;;1.20;;
56455;SDS011;42354;53.218;6.564;2023-08-08T09:11:38;7.28;;;1.30;;
56455;SDS011;42354;53.218;6.564;2023-08-08T09:14:14;7.55;;;1.08;;
56455;SDS011;42354;53.218;6.564;2023-08-08T09:16:44;5.90;;;1.15;;
56455;SDS011;42354;53.218;6.564;2023-08-08T09:19:11;8.13;;;1.08;;
56455;SDS011;42354;53.218;6.564;2023-08-08T09:21:37;6.28;;;1.10;;
56455;SDS011;42354;53.218;6.564;2023-08-08T09:24:03;4.00;;;0.90;;
56455;SDS011;42354;53.218;6.564;2023-08-08T09:26:28;5.28;;;1.00;;
56455;SDS011;42354;53.218;6.564;2023-08-08T09:28:54;5.78;;;1.10;;
56455;SDS011;42354;53.218;6.564;2023-08-08T09:31:19;9.30;;;1.38;;
56455;SDS011;42354;53.218;6.564;2023-08-08T09:33:45;5.95;;;0.80;;
56455;SDS011;42354;53.218;6.564;2023-08-08T09:36:17;5.72;;;0.82;;
56455;SDS011;42354;53.218;6.564;2023-08-08T09:38:44;8.75;;;1.00;;
56455;SDS011;42354;53.218;6.564;2023-08-08T09:41:10;11.60;;;1.00;;
56455;SDS011;42354;53.218;6.564;2023-08-08T09:43:36;10.93;;;1.15;;
56455;SDS011;42354;53.218;6.564;2023-08-08T09:46:02;5.22;;;1.10;;
56455;SDS011;42354;53.218;6.564;2023-08-08T09:48:31;6.80;;;0.90;;
56455;SDS011;42354;53.218;6.564;2023-08-08T09:50:58;5.07;;;0.80;;
56455;SDS011;42354;53.218;6.564;2023-08-08T09:53:27;3.63;;;0.90;;
56455;SDS011;42354;53.218;6.564;2023-08-08T09:55:54;8.65;;;0.88;;
56455;SDS011;42354;53.218;6.564;2023-08-08T09:58:20;4.72;;;0.90;;
56455;SDS011;42354;53.218;6.564;2023-08-08T10:00:50;5.07;;;1.02;;
56455;SDS011;42354;53.218;6.564;2023-08-08T10:03:16;4.30;;;1.10;;
56455;SDS011;42354;53.218;6.564;2023-08-08T10:05:42;7.15;;;1.60;;
56455;SDS011;42354;53.218;6.564;2023-08-08T10:08:08;5.10;;;1.10;;
56455;SDS011;42354;53.218;6.564;2023-08-08T10:10:34;3.92;;;0.90;;
56455;SDS011;42354;53.218;6.564;2023-08-08T10:13:00;2.88;;;0.85;;
56455;SDS011;42354;53.218;6.564;2023-08-08T10:15:26;1.33;;;0.70;;
56455;SDS011;42354;53.218;6.564;2023-08-08T10:17:56;4.18;;;1.00;;
56455;SDS011;42354;53.218;6.564;2023-08-08T10:20:23;4.63;;;0.90;;
56455;SDS011;42354;53.218;6.564;2023-08-08T10:22:51;6.57;;;1.42;;
56455;SDS011;42354;53.218;6.564;2023-08-08T10:25:22;8.88;;;1.25;;
56455;SDS011;42354;53.218;6.564;2023-08-08T10:27:49;6.72;;;1.55;;
56455;SDS011;42354;53.218;6.564;2023-08-08T10:30:15;4.70;;;1.17;;
56455;SDS011;42354;53.218;6.564;2023-08-08T10:32:42;9.38;;;1.25;;
56455;SDS011;42354;53.218;6.564;2023-08-08T10:35:10;5.15;;;1.30;;
56455;SDS011;42354;53.218;6.564;2023-08-08T10:37:37;9.07;;;1.48;;
56455;SDS011;42354;53.218;6.564;2023-08-08T10:40:03;9.98;;;1.33;;
56455;SDS011;42354;53.218;6.564;2023-08-08T10:42:31;8.48;;;1.00;;
56455;SDS011;42354;53.218;6.564;2023-08-08T10:45:00;6.22;;;1.20;;
56455;SDS011;42354;53.218;6.564;2023-08-08T10:47:32;6.18;;;1.08;;
56455;SDS011;42354;53.218;6.564;2023-08-08T10:50:10;4.83;;;1.10;;
56455;SDS011;42354;53.218;6.564;2023-08-08T10:55:21;6.47;;;1.17;;
56455;SDS011;42354;53.218;6.564;2023-08-08T10:57:58;3.35;;;1.33;;
56455;SDS011;42354;53.218;6.564;2023-08-08T11:00:27;4.97;;;1.15;;
56455;SDS011;42354;53.218;6.564;2023-08-08T11:02:55;3.30;;;1.20;;
56455;SDS011;42354;53.218;6.564;2023-08-08T11:05:22;5.18;;;1.63;;
56455;SDS011;42354;53.218;6.564;2023-08-08T11:07:49;4.45;;;1.27;;
56455;SDS011;42354;53.218;6.564;2023-08-08T11:10:16;4.90;;;1.02;;
56455;SDS011;42354;53.218;6.564;2023-08-08T11:12:41;8.45;;;0.95;;
56455;SDS011;42354;53.218;6.564;2023-08-08T11:15:07;3.78;;;1.45;;
56455;SDS011;42354;53.218;6.564;2023-08-08T11:17:33;8.07;;;0.95;;
56455;SDS011;42354;53.218;6.564;2023-08-08T11:19:59;3.60;;;1.00;;
56455;SDS011;42354;53.218;6.564;2023-08-08T11:22:26;8.85;;;1.10;;
56455;SDS011;42354;53.218;6.564;2023-08-08T11:24:52;3.50;;;0.80;;
56455;SDS011;42354;53.218;6.564;2023-08-08T11:27:17;2.85;;;0.80;;
56455;SDS011;42354;53.218;6.564;2023-08-08T11:29:49;4.20;;;1.00;;
56455;SDS011;42354;53.218;6.564;2023-08-08T11:32:15;5.60;;;0.80;;
56455;SDS011;42354;53.218;6.564;2023-08-08T11:34:41;2.97;;;0.90;;
56455;SDS011;42354;53.218;6.564;2023-08-08T11:37:07;3.67;;;0.98;;
56455;SDS011;42354;53.218;6.564;2023-08-08T11:39:33;4.15;;;1.00;;
56455;SDS011;42354;53.218;6.564;2023-08-08T11:41:59;5.15;;;1.08;;
56455;SDS011;42354;53.218;6.564;2023-08-08T11:44:26;2.38;;;1.00;;
56455;SDS011;42354;53.218;6.564;2023-08-08T11:46:51;3.97;;;0.80;;
56455;SDS011;42354;53.218;6.564;2023-08-08T11:49:17;1.95;;;0.68;;
56455;SDS011;42354;53.218;6.564;2023-08-08T11:51:43;7.38;;;1.20;;
56455;SDS011;42354;53.218;6.564;2023-08-08T11:54:10;3.38;;;1.05;;
56455;SDS011;42354;53.218;6.564;2023-08-08T11:56:36;2.97;;;1.00;;
56455;SDS011;42354;53.218;6.564;2023-08-08T11:59:02;6.75;;;1.10;;
56455;SDS011;42354;53.218;6.564;2023-08-08T12:01:31;5.85;;;1.08;;
56455;SDS011;42354;53.218;6.564;2023-08-08T12:03:57;5.15;;;0.90;;
56455;SDS011;42354;53.218;6.564;2023-08-08T12:06:29;4.75;;;1.00;;
56455;SDS011;42354;53.218;6.564;2023-08-08T12:08:54;2.55;;;0.80;;
56455;SDS011;42354;53.218;6.564;2023-08-08T12:11:20;6.85;;;1.15;;
56455;SDS011;42354;53.218;6.564;2023-08-08T12:13:46;5.47;;;1.08;;
56455;SDS011;42354;53.218;6.564;2023-08-08T12:16:12;4.32;;;0.90;;
56455;SDS011;42354;53.218;6.564;2023-08-08T12:18:39;3.45;;;1.10;;
56455;SDS011;42354;53.218;6.564;2023-08-08T12:21:06;9.32;;;1.63;;
56455;SDS011;42354;53.218;6.564;2023-08-08T12:23:32;5.78;;;1.33;;
56455;SDS011;42354;53.218;6.564;2023-08-08T12:25:59;4.20;;;1.23;;
56455;SDS011;42354;53.218;6.564;2023-08-08T12:28:28;4.07;;;0.95;;
56455;SDS011;42354;53.218;6.564;2023-08-08T12:30:53;5.32;;;1.30;;
56455;SDS011;42354;53.218;6.564;2023-08-08T12:33:18;4.68;;;0.98;;
56455;SDS011;42354;53.218;6.564;2023-08-08T12:35:44;7.90;;;1.33;;
56455;SDS011;42354;53.218;6.564;2023-08-08T12:38:09;8.65;;;1.10;;
56455;SDS011;42354;53.218;6.564;2023-08-08T12:40:35;3.80;;;1.45;;
56455;SDS011;42354;53.218;6.564;2023-08-08T12:43:01;3.45;;;1.00;;
56455;SDS011;42354;53.218;6.564;2023-08-08T12:45:26;8.40;;;1.70;;
56455;SDS011;42354;53.218;6.564;2023-08-08T12:47:52;5.35;;;1.25;;
56455;SDS011;42354;53.218;6.564;2023-08-08T12:50:20;7.60;;;1.80;;
56455;SDS011;42354;53.218;6.564;2023-08-08T12:52:45;7.15;;;1.20;;
56455;SDS011;42354;53.218;6.564;2023-08-08T12:55:11;7.40;;;1.48;;
56455;SDS011;42354;53.218;6.564;2023-08-08T12:57:37;6.00;;;0.90;;
56455;SDS011;42354;53.218;6.564;2023-08-08T13:00:03;4.15;;;0.93;;
56455;SDS011;42354;53.218;6.564;2023-08-08T13:02:31;6.78;;;0.70;;
56455;SDS011;42354;53.218;6.564;2023-08-08T13:04:58;4.22;;;0.93;;
56455;SDS011;42354;53.218;6.564;2023-08-08T13:07:23;4.28;;;1.10;;
56455;SDS011;42354;53.218;6.564;2023-08-08T13:09:48;6.65;;;2.10;;
56455;SDS011;42354;53.218;6.564;2023-08-08T13:12:14;5.68;;;1.25;;
56455;SDS011;42354;53.218;6.564;2023-08-08T13:14:39;8.30;;;1.20;;
56455;SDS011;42354;53.218;6.564;2023-08-08T13:17:05;4.95;;;0.80;;
56455;SDS011;42354;53.218;6.564;2023-08-08T13:19:30;7.32;;;1.40;;
56455;SDS011;42354;53.218;6.564;2023-08-08T13:21:56;4.78;;;1.40;;
56455;SDS011;42354;53.218;6.564;2023-08-08T13:24:21;6.07;;;1.30;;
56455;SDS011;42354;53.218;6.564;2023-08-08T13:26:50;4.32;;;0.90;;
56455;SDS011;42354;53.218;6.564;2023-08-08T13:29:16;3.53;;;0.88;;
56455;SDS011;42354;53.218;6.564;2023-08-08T13:31:42;3.65;;;0.90;;
56455;SDS011;42354;53.218;6.564;2023-08-08T13:34:08;3.83;;;1.17;;
56455;SDS011;42354;53.218;6.564;2023-08-08T13:36:34;7.30;;;0.93;;
56455;SDS011;42354;53.218;6.564;2023-08-08T13:38:59;3.50;;;0.90;;
56455;SDS011;42354;53.218;6.564;2023-08-08T13:41:25;3.40;;;0.80;;
56455;SDS011;42354;53.218;6.564;2023-08-08T13:43:50;6.00;;;0.88;;
56455;SDS011;42354;53.218;6.564;2023-08-08T13:46:16;4.47;;;0.93;;
56455;SDS011;42354;53.218;6.564;2023-08-08T13:48:41;4.97;;;1.40;;
56455;SDS011;42354;53.218;6.564;2023-08-08T13:51:07;7.20;;;1.25;;
56455;SDS011;42354;53.218;6.564;2023-08-08T13:53:33;3.80;;;1.20;;
56455;SDS011;42354;53.218;6.564;2023-08-08T13:55:59;4.60;;;1.38;;
56455;SDS011;42354;53.218;6.564;2023-08-08T13:58:24;5.70;;;0.90;;
56455;SDS011;42354;53.218;6.564;2023-08-08T14:00:50;5.78;;;1.33;;
56455;SDS011;42354;53.218;6.564;2023-08-08T14:03:16;8.48;;;1.50;;
56455;SDS011;42354;53.218;6.564;2023-08-08T14:05:42;9.55;;;1.08;;
56455;SDS011;42354;53.218;6.564;2023-08-08T14:08:08;6.65;;;1.38;;
56455;SDS011;42354;53.218;6.564;2023-08-08T14:10:35;4.97;;;1.10;;
56455;SDS011;42354;53.218;6.564;2023-08-08T14:13:00;5.00;;;1.27;;
56455;SDS011;42354;53.218;6.564;2023-08-08T14:15:26;5.88;;;1.15;;
56455;SDS011;42354;53.218;6.564;2023-08-08T14:17:52;7.05;;;1.23;;
56455;SDS011;42354;53.218;6.564;2023-08-08T14:20:17;4.72;;;1.23;;
56455;SDS011;42354;53.218;6.564;2023-08-08T14:22:44;6.25;;;1.10;;
56455;SDS011;42354;53.218;6.564;2023-08-08T14:25:11;5.93;;;1.00;;
56455;SDS011;42354;53.218;6.564;2023-08-08T14:27:37;5.05;;;1.15;;
56455;SDS011;42354;53.218;6.564;2023-08-08T14:30:03;4.45;;;0.90;;
56455;SDS011;42354;53.218;6.564;2023-08-08T14:32:31;6.07;;;1.05;;
56455;SDS011;42354;53.218;6.564;2023-08-08T14:34:57;6.57;;;1.25;;
56455;SDS011;42354;53.218;6.564;2023-08-08T14:37:24;9.23;;;1.65;;
56455;SDS011;42354;53.218;6.564;2023-08-08T14:39:51;7.90;;;1.45;;
56455;SDS011;42354;53.218;6.564;2023-08-08T14:42:16;5.03;;;1.25;;
56455;SDS011;42354;53.218;6.564;2023-08-08T14:44:42;10.45;;;1.20;;